< < Back
Terminal Aerodrome Forecast


Current Version              Previous Versions:   1  2  3  4  5  6  7  8  9  

Terminal Aerodrome Forecast

554
FTUS44 KMRX 021720
TAFCHA
TAF
KCHA 021720Z 0218/0318 36003KT P6SM SKC
     FM031300 28005KT P6SM FEW050=

Latest METAR

568
SAUS80 KWBC 030600
MTRCHA
METAR KCHA 030553Z AUTO 00000KT 10SM SCT075 23/18 A2993 RMK AO2 SLP126
T02280183 10306 20228 53004


USA.gov is the U.S. government's official web portal to all federal, state and local government web resources and services.